Time;durP1;ratioP1;P1;durP2;ratioP2;P2;SDS_P1;SDS_P2;PMS_P1;PMS_P2;Temp;Humidity;BMP_temperature;BMP_pressure;BME280_temperature;BME280_humidity;BME280_pressure;Samples;Min_cycle;Max_cycle;Signal;HPM_P1;HPM_P2
2021/07/18 00:00:20;;;;;;;4.10;2.13;;;17.80;99.90;;;;;;4859847;29;20464;-72
2021/07/18 00:02:47;;;;;;;5.37;2.93;;;17.70;99.90;;;;;;4874400;29;20531;-72
2021/07/18 00:05:14;;;;;;;3.20;2.90;;;17.50;99.90;;;;;;4873296;29;20512;-72
2021/07/18 00:07:41;;;;;;;4.43;2.60;;;17.50;99.90;;;;;;4859838;29;20429;-72
2021/07/18 00:10:09;;;;;;;4.10;2.80;;;17.40;99.90;;;;;;4857925;29;20904;-72
2021/07/18 00:12:39;;;;;;;8.60;2.80;;;17.30;99.90;;;;;;4875620;29;20427;-72
2021/07/18 00:15:08;;;;;;;2.67;2.30;;;17.30;99.90;;;;;;4878067;29;20562;-72
2021/07/18 00:17:39;;;;;;;5.00;2.77;;;17.20;99.90;;;;;;4876362;29;20428;-72
2021/07/18 00:20:09;;;;;;;3.47;2.53;;;17.10;99.90;;;;;;4858462;29;20464;-72
2021/07/18 00:22:36;;;;;;;3.73;2.60;;;17.10;99.90;;;;;;4859635;29;20429;-72
2021/07/18 00:25:04;;;;;;;4.00;2.40;;;17.00;99.90;;;;;;4859602;29;20488;-72
2021/07/18 00:27:31;;;;;;;6.70;2.93;;;16.90;99.90;;;;;;4873763;29;20428;-73
2021/07/18 00:29:58;;;;;;;4.37;3.27;;;17.00;99.90;;;;;;4851961;29;20838;-72
2021/07/18 00:32:25;;;;;;;8.03;3.07;;;16.90;99.90;;;;;;4859732;29;20841;-72
2021/07/18 00:34:52;;;;;;;3.30;2.77;;;16.80;99.90;;;;;;4858711;29;20469;-72
2021/07/18 00:37:19;;;;;;;6.83;2.80;;;16.80;99.90;;;;;;4859531;29;20515;-72
2021/07/18 00:39:46;;;;;;;5.53;3.20;;;16.80;99.90;;;;;;4859103;29;20555;-72
2021/07/18 00:42:17;;;;;;;7.20;2.90;;;16.90;99.90;;;;;;4858441;29;21004;-72
2021/07/18 00:44:45;;;;;;;5.13;2.87;;;16.90;99.90;;;;;;4859271;29;20556;-72
2021/07/18 00:47:13;;;;;;;3.70;3.17;;;16.80;99.90;;;;;;4858924;29;20516;-72
2021/07/18 00:49:40;;;;;;;4.03;2.93;;;16.80;99.90;;;;;;4859218;29;20479;-72
2021/07/18 00:52:07;;;;;;;5.80;3.17;;;16.80;99.90;;;;;;4860020;29;20433;-72
2021/07/18 00:54:34;;;;;;;6.33;3.30;;;16.90;99.90;;;;;;4859053;29;20480;-72
2021/07/18 00:57:02;;;;;;;4.97;3.10;;;16.90;99.90;;;;;;4859395;29;20460;-72
2021/07/18 00:59:29;;;;;;;6.00;3.20;;;16.90;99.90;;;;;;4859216;29;20515;-72
2021/07/18 01:01:55;;;;;;;3.57;2.50;;;16.80;99.90;;;;;;4859696;29;20539;-72
2021/07/18 01:04:23;;;;;;;4.93;2.77;;;16.80;99.90;;;;;;4857770;29;21036;-72
2021/07/18 01:06:51;;;;;;;5.27;2.90;;;16.70;99.90;;;;;;4859571;29;20432;-72
2021/07/18 01:09:17;;;;;;;6.67;2.80;;;16.70;99.90;;;;;;4858347;29;20476;-72
2021/07/18 01:11:44;;;;;;;3.97;2.87;;;16.60;99.90;;;;;;4858191;29;20437;-72
2021/07/18 01:14:11;;;;;;;4.20;3.30;;;16.50;99.90;;;;;;4858752;29;20494;-72
2021/07/18 01:16:38;;;;;;;4.23;2.67;;;16.60;99.90;;;;;;4859458;29;20531;-72
2021/07/18 01:19:06;;;;;;;4.17;2.90;;;16.60;99.90;;;;;;4858453;29;20977;-72
2021/07/18 01:21:34;;;;;;;3.73;3.23;;;16.60;99.90;;;;;;4860911;29;20440;-72
2021/07/18 01:24:02;;;;;;;6.33;3.60;;;16.60;99.90;;;;;;4864932;29;20487;-72
2021/07/18 01:26:29;;;;;;;4.83;3.03;;;16.60;99.90;;;;;;4881561;29;20431;-72
2021/07/18 01:28:56;;;;;;;6.43;3.60;;;16.50;99.90;;;;;;4880517;29;20925;-72
2021/07/18 01:31:23;;;;;;;6.40;2.83;;;16.50;99.90;;;;;;4880262;29;20443;-72
2021/07/18 01:33:50;;;;;;;5.13;3.13;;;16.50;99.90;;;;;;4875398;29;20472;-72
2021/07/18 01:36:17;;;;;;;3.50;3.13;;;16.60;99.90;;;;;;4861637;29;20447;-72
2021/07/18 01:38:44;;;;;;;3.97;3.53;;;16.70;99.90;;;;;;4862178;29;20834;-72
2021/07/18 01:41:10;;;;;;;3.30;2.87;;;16.60;99.90;;;;;;4862649;29;20443;-72
2021/07/18 01:43:37;;;;;;;3.60;2.57;;;16.60;99.90;;;;;;4876466;29;20440;-72
2021/07/18 01:46:04;;;;;;;4.57;2.90;;;16.50;99.90;;;;;;4862545;29;20943;-72
2021/07/18 01:48:31;;;;;;;9.67;3.63;;;16.50;99.90;;;;;;4861526;29;20475;-73
2021/07/18 01:50:58;;;;;;;4.80;3.27;;;16.60;99.90;;;;;;4862787;29;20433;-72
2021/07/18 01:53:25;;;;;;;4.40;3.43;;;16.60;99.90;;;;;;4862378;29;20444;-72
2021/07/18 01:55:53;;;;;;;3.30;3.00;;;16.60;99.90;;;;;;4861915;29;20481;-72
2021/07/18 01:58:26;;;;;;;5.73;3.50;;;16.60;99.90;;;;;;4862283;29;20858;-72
2021/07/18 02:00:56;;;;;;;4.70;2.67;;;16.50;99.90;;;;;;4862322;29;20551;-72
2021/07/18 02:03:23;;;;;;;3.20;2.73;;;16.40;99.90;;;;;;4862001;29;20448;-72
2021/07/18 02:05:50;;;;;;;3.50;2.87;;;16.40;99.90;;;;;;4861776;29;20970;-72
2021/07/18 02:08:19;;;;;;;3.33;3.03;;;16.40;99.90;;;;;;4861931;29;20467;-72
2021/07/18 02:10:46;;;;;;;4.00;2.80;;;16.30;99.90;;;;;;4861482;29;20480;-72
2021/07/18 02:13:17;;;;;;;9.27;4.00;;;16.30;99.90;;;;;;4862098;29;20468;-72
2021/07/18 02:15:45;;;;;;;10.43;4.30;;;16.30;99.90;;;;;;4861696;29;20499;-72
2021/07/18 02:18:12;;;;;;;4.80;3.60;;;16.20;99.90;;;;;;4861556;29;20947;-72
2021/07/18 02:20:39;;;;;;;5.10;4.00;;;16.20;99.90;;;;;;4875846;29;20474;-72
2021/07/18 02:23:07;;;;;;;4.10;3.30;;;16.30;99.90;;;;;;4880512;29;20455;-72
2021/07/18 02:25:34;;;;;;;4.67;2.93;;;16.30;99.90;;;;;;4877784;29;20471;-72
2021/07/18 02:28:00;;;;;;;3.93;3.33;;;16.30;99.90;;;;;;4880252;29;20423;-72
2021/07/18 02:30:28;;;;;;;6.10;3.50;;;16.20;99.90;;;;;;4879843;29;20489;-72
2021/07/18 02:32:56;;;;;;;8.33;3.87;;;16.20;99.90;;;;;;4878897;29;20447;-72
2021/07/18 02:35:23;;;;;;;4.90;2.93;;;16.10;99.90;;;;;;4863201;29;20479;-72
2021/07/18 02:37:51;;;;;;;3.83;3.37;;;16.20;99.90;;;;;;4860698;29;20523;-72
2021/07/18 02:40:20;;;;;;;6.97;4.33;;;16.20;99.90;;;;;;4875664;29;20512;-72
2021/07/18 02:42:48;;;;;;;4.50;3.30;;;16.20;99.90;;;;;;4860481;29;20483;-72
2021/07/18 02:45:16;;;;;;;4.60;3.00;;;16.20;99.90;;;;;;4861268;29;21013;-72
2021/07/18 02:47:44;;;;;;;5.93;3.50;;;16.20;99.90;;;;;;4861327;29;20527;-72
2021/07/18 02:50:13;;;;;;;6.20;4.03;;;16.20;99.90;;;;;;4860854;29;20476;-72
2021/07/18 02:52:41;;;;;;;3.70;2.83;;;16.20;99.90;;;;;;4861357;29;20955;-72
2021/07/18 02:55:08;;;;;;;6.27;4.17;;;16.20;99.90;;;;;;4860842;29;21025;-72
2021/07/18 02:57:35;;;;;;;5.17;3.13;;;16.20;99.90;;;;;;4859780;29;20444;-72
2021/07/18 03:00:24;;;;;;;5.47;3.80;;;16.20;99.90;;;;;;4861011;29;20473;-72
2021/07/18 03:02:51;;;;;;;5.93;3.40;;;16.10;99.90;;;;;;4865516;29;20452;-72
2021/07/18 03:05:18;;;;;;;5.70;3.80;;;16.10;99.90;;;;;;4879342;29;20870;-72
2021/07/18 03:07:46;;;;;;;11.30;4.50;;;16.20;99.90;;;;;;4879522;29;20526;-72
2021/07/18 03:10:15;;;;;;;5.53;4.10;;;16.10;99.90;;;;;;4866553;29;20487;-72
2021/07/18 03:12:42;;;;;;;5.03;3.97;;;16.10;99.90;;;;;;4861034;29;21045;-72
2021/07/18 03:15:14;;;;;;;9.00;4.10;;;16.20;99.90;;;;;;4860676;29;20468;-72
2021/07/18 03:17:41;;;;;;;6.47;3.47;;;16.20;99.90;;;;;;4859836;29;20452;-72
2021/07/18 03:20:11;;;;;;;4.70;3.40;;;16.10;99.90;;;;;;4860853;29;20460;-72
2021/07/18 03:22:38;;;;;;;6.17;3.70;;;16.20;99.90;;;;;;4861044;29;20865;-72
2021/07/18 03:25:07;;;;;;;5.63;4.43;;;16.20;99.90;;;;;;4859141;29;21006;-72
2021/07/18 03:27:34;;;;;;;4.23;3.77;;;16.20;99.90;;;;;;4860614;29;20429;-72
2021/07/18 03:30:04;;;;;;;5.70;4.03;;;16.20;99.90;;;;;;4860581;29;20464;-72
2021/07/18 03:32:31;;;;;;;5.23;3.93;;;16.20;99.90;;;;;;4858722;29;20535;-72
2021/07/18 03:34:58;;;;;;;5.10;4.30;;;16.20;99.90;;;;;;4874191;29;20544;-72
2021/07/18 03:37:25;;;;;;;4.90;3.60;;;16.20;99.90;;;;;;4860531;29;20834;-72
2021/07/18 03:39:52;;;;;;;5.97;3.93;;;16.20;99.90;;;;;;4859916;29;20575;-72
2021/07/18 03:42:19;;;;;;;6.73;4.80;;;16.30;99.90;;;;;;4860647;29;20523;-72
2021/07/18 03:44:45;;;;;;;7.70;4.27;;;16.30;99.90;;;;;;4859520;29;20520;-73
2021/07/18 03:47:12;;;;;;;5.50;4.33;;;16.30;99.90;;;;;;4859824;29;20460;-72
2021/07/18 03:49:39;;;;;;;5.73;4.67;;;16.20;99.90;;;;;;4859437;29;20494;-72
2021/07/18 03:52:06;;;;;;;7.23;4.00;;;16.20;99.90;;;;;;4874650;29;20444;-73
2021/07/18 03:54:33;;;;;;;6.80;4.53;;;16.20;99.90;;;;;;4880074;29;20483;-72
2021/07/18 03:57:04;;;;;;;6.47;4.20;;;16.10;99.90;;;;;;4878731;29;20470;-73
2021/07/18 03:59:30;;;;;;;7.20;4.30;;;16.20;99.90;;;;;;4878378;29;20475;-73
2021/07/18 04:01:57;;;;;;;7.53;4.40;;;16.20;99.90;;;;;;4878835;29;20434;-73
2021/07/18 04:04:26;;;;;;;5.53;4.63;;;16.20;99.90;;;;;;4863886;29;21042;-73
2021/07/18 04:06:53;;;;;;;5.70;4.50;;;16.20;99.90;;;;;;4860515;29;20919;-72
2021/07/18 04:09:20;;;;;;;6.50;4.43;;;16.20;99.90;;;;;;4859151;29;20557;-73
2021/07/18 04:11:47;;;;;;;10.70;4.90;;;16.10;99.90;;;;;;4858909;29;20920;-73
2021/07/18 04:14:13;;;;;;;8.53;4.80;;;16.10;99.90;;;;;;4858076;29;20476;-73
2021/07/18 04:16:40;;;;;;;6.00;4.40;;;16.10;99.90;;;;;;4867928;29;20426;-73
2021/07/18 04:19:07;;;;;;;5.67;4.50;;;16.10;99.90;;;;;;4863877;29;20812;-73
2021/07/18 04:21:34;;;;;;;8.30;4.70;;;16.10;99.90;;;;;;4859045;29;20888;-73
2021/07/18 04:24:01;;;;;;;11.60;4.90;;;16.20;99.90;;;;;;4859550;29;20480;-73
2021/07/18 04:26:28;;;;;;;7.20;5.40;;;16.20;99.90;;;;;;4860125;29;20431;-73
2021/07/18 04:28:55;;;;;;;6.93;5.57;;;16.20;99.90;;;;;;4857626;29;21014;-73
2021/07/18 04:31:22;;;;;;;9.93;4.87;;;16.30;99.90;;;;;;4874183;29;20439;-73
2021/07/18 04:33:50;;;;;;;6.43;5.30;;;16.30;99.90;;;;;;4859254;29;20523;-73
2021/07/18 04:36:18;;;;;;;6.57;4.30;;;16.30;99.90;;;;;;4859866;29;20425;-73
2021/07/18 04:38:49;;;;;;;11.00;5.67;;;16.30;99.90;;;;;;4858786;29;21418;-73
2021/07/18 04:41:16;;;;;;;6.07;4.93;;;16.40;99.90;;;;;;4859605;29;20503;-73
2021/07/18 04:43:43;;;;;;;6.27;4.70;;;16.40;99.90;;;;;;4859285;29;20440;-73
2021/07/18 04:46:11;;;;;;;6.93;5.43;;;16.40;99.90;;;;;;4859682;29;20425;-73
2021/07/18 04:48:38;;;;;;;6.70;5.33;;;16.50;99.90;;;;;;4858833;29;20496;-73
2021/07/18 04:51:05;;;;;;;6.33;5.00;;;16.50;99.90;;;;;;4859608;29;20516;-73
2021/07/18 04:53:32;;;;;;;7.23;5.23;;;16.50;99.90;;;;;;4858817;29;20444;-73
2021/07/18 04:56:02;;;;;;;6.27;5.67;;;16.50;99.90;;;;;;4858426;29;20531;-73
2021/07/18 04:58:31;;;;;;;5.93;4.97;;;16.50;99.90;;;;;;4858731;29;20462;-73
2021/07/18 05:00:58;;;;;;;6.47;5.87;;;16.60;99.90;;;;;;4843012;29;20436;-73
2021/07/18 05:03:25;;;;;;;11.03;5.60;;;16.70;99.90;;;;;;4858743;29;20820;-73
2021/07/18 05:05:52;;;;;;;5.73;5.13;;;16.70;99.90;;;;;;4859438;29;20437;-73
2021/07/18 05:08:20;;;;;;;6.90;4.83;;;16.70;99.90;;;;;;4859115;29;20479;-73
2021/07/18 05:10:47;;;;;;;7.60;5.57;;;16.80;99.90;;;;;;4859068;29;20971;-73
2021/07/18 05:13:14;;;;;;;8.50;5.33;;;16.80;99.90;;;;;;4873514;29;20467;-73
2021/07/18 05:15:41;;;;;;;5.90;5.30;;;16.80;99.90;;;;;;4858912;29;21099;-73
2021/07/18 05:18:13;;;;;;;6.87;5.73;;;16.80;99.90;;;;;;4859105;29;20530;-73
2021/07/18 05:20:41;;;;;;;5.97;4.97;;;16.80;99.90;;;;;;4859150;29;20503;-72
2021/07/18 05:23:09;;;;;;;7.57;6.00;;;16.90;99.90;;;;;;4859116;29;20539;-73
2021/07/18 05:25:36;;;;;;;9.53;5.40;;;16.90;99.90;;;;;;4858467;29;20998;-73
2021/07/18 05:28:04;;;;;;;6.67;5.03;;;17.00;99.90;;;;;;4859026;29;20424;-73
2021/07/18 05:30:31;;;;;;;7.30;4.90;;;17.10;99.90;;;;;;4858817;29;20575;-72
2021/07/18 05:32:58;;;;;;;9.97;6.23;;;17.30;99.90;;;;;;4872798;29;20482;-73
2021/07/18 05:35:25;;;;;;;10.53;6.27;;;17.30;99.90;;;;;;4858928;29;20929;-73
2021/07/18 05:37:52;;;;;;;9.60;6.73;;;17.30;99.90;;;;;;4858961;29;20420;-73
2021/07/18 05:40:19;;;;;;;10.03;6.50;;;17.40;99.90;;;;;;4858376;29;20858;-72
2021/07/18 05:42:46;;;;;;;12.43;7.47;;;17.50;99.90;;;;;;4873403;29;20440;-72
2021/07/18 05:45:15;;;;;;;7.77;6.43;;;17.50;99.90;;;;;;4872647;29;21025;-72
2021/07/18 05:47:42;;;;;;;16.83;9.43;;;17.50;99.90;;;;;;4859038;29;20451;-72
2021/07/18 05:50:09;;;;;;;10.40;8.70;;;17.50;99.90;;;;;;4872804;29;21018;-72
2021/07/18 05:52:37;;;;;;;12.17;8.57;;;17.40;99.90;;;;;;4859111;29;20538;-72
2021/07/18 05:55:06;;;;;;;15.00;10.10;;;17.50;99.90;;;;;;4857933;29;20475;-72
2021/07/18 05:57:34;;;;;;;13.70;8.53;;;17.60;99.90;;;;;;4858642;29;20523;-72
2021/07/18 06:00:03;;;;;;;16.43;10.37;;;17.60;99.90;;;;;;4858515;29;20991;-72
2021/07/18 06:02:36;;;;;;;15.20;10.10;;;17.60;99.90;;;;;;4859122;29;20426;-72
2021/07/18 06:05:04;;;;;;;16.30;10.90;;;17.60;99.90;;;;;;4872705;29;20479;-72
2021/07/18 06:07:31;;;;;;;16.63;12.80;;;17.70;99.90;;;;;;4859906;29;21144;-72
2021/07/18 06:09:58;;;;;;;21.83;14.13;;;17.60;99.90;;;;;;4881399;29;20497;-72
2021/07/18 06:12:25;;;;;;;18.30;13.80;;;17.60;99.90;;;;;;4881043;29;20806;-72
2021/07/18 06:14:52;;;;;;;21.13;13.00;;;17.60;99.90;;;;;;4880100;29;21036;-72
2021/07/18 06:17:19;;;;;;;17.67;15.17;;;17.60;99.90;;;;;;4880506;29;20798;-72
2021/07/18 06:19:45;;;;;;;21.17;15.80;;;17.60;99.90;;;;;;4866428;29;20468;-72
2021/07/18 06:22:12;;;;;;;25.10;17.17;;;17.70;99.90;;;;;;4861158;29;20496;-72
2021/07/18 06:24:39;;;;;;;19.83;16.90;;;17.70;99.90;;;;;;4861487;29;20938;-72
2021/07/18 06:27:07;;;;;;;19.70;14.63;;;17.70;99.90;;;;;;4876010;29;20433;-72
2021/07/18 06:29:34;;;;;;;19.20;17.07;;;17.70;99.90;;;;;;4861431;29;20494;-72
2021/07/18 06:32:02;;;;;;;24.53;17.97;;;17.80;99.90;;;;;;4861761;29;21022;-73
2021/07/18 06:34:32;;;;;;;21.70;18.40;;;17.90;99.90;;;;;;4861038;29;21029;-72
2021/07/18 06:37:00;;;;;;;22.23;17.53;;;18.00;99.90;;;;;;4861724;29;21026;-73
2021/07/18 06:39:27;;;;;;;20.00;15.97;;;18.10;99.90;;;;;;4861120;29;20472;-72
2021/07/18 06:41:56;;;;;;;20.33;16.10;;;18.30;99.90;;;;;;4861593;29;20428;-73
2021/07/18 06:44:23;;;;;;;15.60;14.03;;;18.40;99.90;;;;;;4859992;29;20474;-73
2021/07/18 06:46:50;;;;;;;17.97;16.07;;;18.50;99.90;;;;;;4862051;29;20433;-72
2021/07/18 06:49:17;;;;;;;17.63;15.17;;;18.50;99.90;;;;;;4860454;29;20539;-73
2021/07/18 06:51:44;;;;;;;18.53;14.10;;;18.50;99.90;;;;;;4861474;29;20524;-72
2021/07/18 06:54:11;;;;;;;16.60;14.93;;;18.60;99.90;;;;;;4860159;29;20489;-72
2021/07/18 06:56:38;;;;;;;18.50;14.37;;;18.80;99.90;;;;;;4860320;29;20461;-72
2021/07/18 06:59:05;;;;;;;15.23;12.80;;;19.00;99.90;;;;;;4860720;29;20557;-72
2021/07/18 07:01:32;;;;;;;16.10;12.17;;;19.10;99.90;;;;;;4861359;29;20469;-72
2021/07/18 07:03:59;;;;;;;15.63;12.60;;;19.40;99.90;;;;;;4859460;29;20485;-72
2021/07/18 07:06:26;;;;;;;14.23;12.10;;;19.60;99.90;;;;;;4861254;29;20439;-72
2021/07/18 07:08:53;;;;;;;14.77;12.70;;;19.70;99.90;;;;;;4860218;29;20875;-72
2021/07/18 07:11:20;;;;;;;13.57;12.30;;;19.80;99.90;;;;;;4861203;29;20997;-72
2021/07/18 07:13:50;;;;;;;13.13;11.80;;;19.90;99.90;;;;;;4860502;29;20471;-72
2021/07/18 07:16:17;;;;;;;13.80;11.70;;;20.10;99.90;;;;;;4869456;29;20486;-72
2021/07/18 07:18:45;;;;;;;15.87;13.47;;;20.20;99.90;;;;;;4870644;29;20474;-73
2021/07/18 07:21:13;;;;;;;12.53;10.53;;;20.30;99.90;;;;;;4878615;29;21001;-72
2021/07/18 07:23:41;;;;;;;12.97;11.20;;;20.40;99.90;;;;;;4877104;29;20546;-73
2021/07/18 07:26:09;;;;;;;11.80;10.60;;;20.50;99.90;;;;;;4866433;29;20458;-73
2021/07/18 07:28:36;;;;;;;14.57;12.20;;;20.60;99.90;;;;;;4878444;29;20439;-73
2021/07/18 07:31:03;;;;;;;15.07;10.70;;;20.70;99.90;;;;;;4879066;29;20862;-73
2021/07/18 07:33:31;;;;;;;16.70;10.03;;;20.90;99.90;;;;;;4872215;29;20490;-73
2021/07/18 07:35:58;;;;;;;10.63;9.60;;;20.90;99.90;;;;;;4860595;29;20993;-73
2021/07/18 07:38:25;;;;;;;9.37;8.20;;;21.00;99.90;;;;;;4860473;29;20457;-73
2021/07/18 07:40:52;;;;;;;13.53;9.60;;;21.10;99.90;;;;;;4859919;29;20967;-73
2021/07/18 07:43:19;;;;;;;13.20;9.97;;;21.20;99.90;;;;;;4860542;29;20559;-73
2021/07/18 07:45:46;;;;;;;10.87;7.80;;;21.40;99.90;;;;;;4875701;29;20543;-73
2021/07/18 07:48:13;;;;;;;10.40;8.00;;;21.60;99.90;;;;;;4864281;29;20944;-73
2021/07/18 07:50:41;;;;;;;8.97;7.80;;;21.60;99.90;;;;;;4874295;29;21027;-73
2021/07/18 07:53:08;;;;;;;10.47;8.37;;;21.80;99.90;;;;;;4861785;29;20475;-73
2021/07/18 07:55:36;;;;;;;9.00;7.53;;;21.80;99.90;;;;;;4872181;29;20477;-72
2021/07/18 07:58:05;;;;;;;11.67;7.40;;;21.80;99.90;;;;;;4878557;29;20427;-73
2021/07/18 08:00:32;;;;;;;14.43;8.17;;;21.90;99.90;;;;;;4878424;29;20472;-73
2021/07/18 08:02:59;;;;;;;10.83;8.40;;;22.00;99.90;;;;;;4876580;29;20491;-73
2021/07/18 08:05:26;;;;;;;9.60;8.70;;;22.10;99.90;;;;;;4873755;29;20476;-73
2021/07/18 08:07:53;;;;;;;9.70;7.17;;;22.30;99.90;;;;;;4858608;29;20940;-73
2021/07/18 08:10:22;;;;;;;13.67;7.30;;;22.30;99.90;;;;;;4859356;29;20491;-73
2021/07/18 08:12:50;;;;;;;7.03;5.70;;;22.60;99.90;;;;;;4877090;29;20435;-73
2021/07/18 08:15:18;;;;;;;9.50;6.43;;;22.60;99.90;;;;;;4880862;29;20465;-73
2021/07/18 08:17:46;;;;;;;7.47;6.57;;;22.70;99.90;;;;;;4869363;29;20878;-73
2021/07/18 08:20:20;;;;;;;7.30;5.97;;;22.80;99.90;;;;;;4860402;29;20471;-73
2021/07/18 08:22:50;;;;;;;6.37;5.50;;;22.80;99.90;;;;;;4878650;29;20872;-73
2021/07/18 08:25:18;;;;;;;6.07;4.73;;;22.90;99.90;;;;;;4864995;29;20477;-73
2021/07/18 08:27:45;;;;;;;6.57;3.97;;;23.10;99.90;;;;;;4859600;29;20430;-73
2021/07/18 08:30:16;;;;;;;6.97;5.37;;;23.10;99.90;;;;;;4858121;29;20486;-73
2021/07/18 08:32:48;;;;;;;8.57;4.90;;;23.20;99.90;;;;;;4859751;29;20443;-73
2021/07/18 08:35:15;;;;;;;6.83;5.40;;;23.20;99.90;;;;;;4858800;29;20475;-73
2021/07/18 08:37:42;;;;;;;8.37;5.50;;;23.30;99.90;;;;;;4873898;29;20457;-73
2021/07/18 08:40:11;;;;;;;11.23;7.43;;;23.30;99.90;;;;;;4860726;29;21085;-73
2021/07/18 08:42:39;;;;;;;7.40;5.90;;;23.30;99.90;;;;;;4860133;29;20478;-73
2021/07/18 08:45:08;;;;;;;10.50;7.03;;;23.30;99.90;;;;;;4859496;29;20469;-73
2021/07/18 08:47:35;;;;;;;6.70;5.20;;;23.50;99.90;;;;;;4862888;29;20437;-73
2021/07/18 08:50:04;;;;;;;17.07;6.90;;;23.60;99.90;;;;;;4866232;29;21002;-72
2021/07/18 08:52:31;;;;;;;8.00;6.97;;;23.70;99.90;;;;;;4859476;29;20522;-72
2021/07/18 08:55:05;;;;;;;8.10;6.53;;;23.80;99.90;;;;;;4859635;29;20781;-73
2021/07/18 08:57:33;;;;;;;7.87;7.07;;;23.80;99.90;;;;;;4857979;29;20476;-73
2021/07/18 09:00:00;;;;;;;10.87;6.83;;;23.80;99.90;;;;;;4857889;29;20471;-72
2021/07/18 09:02:27;;;;;;;7.90;5.17;;;23.80;99.90;;;;;;4873378;29;20969;-73
2021/07/18 09:04:54;;;;;;;8.60;4.43;;;23.80;99.90;;;;;;4877556;29;20463;-73
2021/07/18 09:07:21;;;;;;;6.43;4.73;;;23.90;99.90;;;;;;4877816;29;20430;-73
2021/07/18 09:09:49;;;;;;;8.40;4.60;;;24.00;99.90;;;;;;4868244;29;21002;-73
2021/07/18 09:12:17;;;;;;;7.30;5.43;;;24.00;99.90;;;;;;4873244;29;20429;-72
2021/07/18 09:14:47;;;;;;;10.40;6.67;;;24.10;99.90;;;;;;4858867;29;20476;-72
2021/07/18 09:17:17;;;;;;;8.00;7.13;;;24.30;99.90;;;;;;4859121;29;20519;-72
2021/07/18 09:19:48;;;;;;;13.03;5.37;;;24.40;99.90;;;;;;4857626;29;20589;-73
2021/07/18 09:22:17;;;;;;;6.20;5.43;;;24.50;99.90;;;;;;4874599;29;20441;-73
2021/07/18 09:24:49;;;;;;;7.33;4.97;;;24.50;99.90;;;;;;4872808;29;20495;-73
2021/07/18 09:27:21;;;;;;;9.53;6.07;;;24.60;99.90;;;;;;4876531;29;20938;-72
2021/07/18 09:29:53;;;;;;;5.73;5.17;;;24.60;99.90;;;;;;4876101;29;20912;-72
2021/07/18 09:32:19;;;;;;;6.93;5.60;;;24.70;99.90;;;;;;4876253;29;20517;-73
2021/07/18 09:34:52;;;;;;;12.63;6.50;;;24.80;99.90;;;;;;4865733;29;20487;-73
2021/07/18 09:37:22;;;;;;;10.43;7.40;;;24.90;99.90;;;;;;4858987;29;20991;-74
2021/07/18 09:40:02;;;;;;;12.13;9.80;;;25.10;99.90;;;;;;4866989;29;20832;-73
2021/07/18 09:42:37;;;;;;;10.30;8.70;;;25.10;99.90;;;;;;4880149;29;20478;-75
2021/07/18 09:45:15;;;;;;;10.03;8.43;;;25.10;99.90;;;;;;4880191;29;20463;-75
2021/07/18 09:47:52;;;;;;;9.80;8.90;;;25.10;99.90;;;;;;4876442;29;20812;-73
2021/07/18 09:50:36;;;;;;;11.10;10.00;;;25.20;99.90;;;;;;4879442;29;20474;-73
2021/07/18 09:53:05;;;;;;;14.10;10.20;;;25.30;99.90;;;;;;4880939;29;20466;-72
2021/07/18 09:55:32;;;;;;;13.53;10.00;;;25.20;99.90;;;;;;4865461;29;20895;-74
2021/07/18 09:57:59;;;;;;;10.43;9.37;;;25.30;99.90;;;;;;4860880;29;20488;-74
2021/07/18 10:00:42;;;;;;;14.57;9.80;;;25.30;99.90;;;;;;4861884;29;20472;-73
2021/07/18 10:03:13;;;;;;;12.60;9.17;;;25.10;99.90;;;;;;4861372;29;21018;-74
2021/07/18 10:05:41;;;;;;;9.70;8.70;;;25.10;99.90;;;;;;4861751;29;20479;-75
2021/07/18 10:08:09;;;;;;;9.53;8.10;;;25.10;99.90;;;;;;4861831;29;20428;-73
2021/07/18 10:10:38;;;;;;;8.63;6.47;;;25.10;99.90;;;;;;4861312;29;20476;-72
2021/07/18 10:13:07;;;;;;;6.77;6.07;;;25.10;99.90;;;;;;4860850;29;20464;-73
2021/07/18 10:15:34;;;;;;;6.57;5.90;;;25.10;99.90;;;;;;4861640;29;20986;-73
2021/07/18 10:18:01;;;;;;;5.23;4.77;;;25.30;99.90;;;;;;4871782;29;20487;-74
2021/07/18 10:20:29;;;;;;;4.70;4.30;;;25.40;99.90;;;;;;4867717;29;20478;-72
2021/07/18 10:22:57;;;;;;;4.03;3.37;;;25.40;99.90;;;;;;4880620;29;20834;-74
2021/07/18 10:25:26;;;;;;;4.00;2.50;;;25.60;99.90;;;;;;4865464;29;20488;-73
2021/07/18 10:27:53;;;;;;;2.93;2.37;;;25.70;95.80;;;;;;4876544;29;20446;-73
2021/07/18 10:30:22;;;;;;;4.97;3.00;;;25.70;97.30;;;;;;4878490;29;20502;-73
2021/07/18 10:32:51;;;;;;;4.00;2.50;;;25.70;99.90;;;;;;4879214;29;20513;-75
2021/07/18 10:35:20;;;;;;;4.50;3.07;;;25.80;99.90;;;;;;4844500;29;21045;-75
2021/07/18 10:37:48;;;;;;;3.33;3.03;;;26.00;97.80;;;;;;4861575;29;20464;-75
2021/07/18 10:40:21;;;;;;;6.10;2.80;;;26.00;99.90;;;;;;4861148;29;20476;-75
2021/07/18 10:42:49;;;;;;;3.80;3.07;;;26.10;97.90;;;;;;4861677;29;20862;-75
2021/07/18 10:45:27;;;;;;;3.60;3.30;;;26.30;98.00;;;;;;4862987;29;20491;-74
2021/07/18 10:48:05;;;;;;;3.50;2.80;;;26.30;98.40;;;;;;4873449;29;20452;-75
2021/07/18 10:50:44;;;;;;;3.30;3.00;;;26.50;99.20;;;;;;4861110;29;20478;-75
2021/07/18 10:53:25;;;;;;;4.37;2.80;;;26.70;95.10;;;;;;4843971;29;21015;-74
2021/07/18 10:55:54;;;;;;;3.10;2.77;;;26.70;94.80;;;;;;4860937;29;20485;-74
2021/07/18 10:58:39;;;;;;;3.67;2.70;;;26.80;92.50;;;;;;4861093;29;20429;-75
2021/07/18 11:01:10;;;;;;;3.37;2.63;;;26.80;93.90;;;;;;4875609;29;20452;-75
2021/07/18 11:03:44;;;;;;;4.63;2.73;;;26.90;92.50;;;;;;4860448;29;20456;-74
2021/07/18 11:06:27;;;;;;;5.20;3.03;;;26.90;91.80;;;;;;4861177;29;20436;-75
2021/07/18 11:09:19;;;;;;;3.70;3.40;;;27.00;92.80;;;;;;4874276;29;20511;-74
2021/07/18 11:11:56;;;;;;;3.27;2.70;;;27.00;93.70;;;;;;4861239;29;20464;-75
2021/07/18 11:14:37;;;;;;;2.27;2.10;;;27.20;92.40;;;;;;4860562;29;20471;-74
2021/07/18 11:17:28;;;;;;;4.63;3.83;;;27.30;89.30;;;;;;4874914;29;20448;-74
2021/07/18 11:20:03;;;;;;;6.83;4.47;;;27.20;90.00;;;;;;4860648;29;20471;-74
2021/07/18 11:22:55;;;;;;;4.17;3.40;;;27.20;90.40;;;;;;4868169;29;20431;-74
2021/07/18 11:25:59;;;;;;;3.93;3.03;;;27.10;87.80;;;;;;4865604;29;21054;-74
2021/07/18 11:28:30;;;;;;;3.87;3.10;;;27.20;91.90;;;;;;4868224;29;20439;-75
2021/07/18 11:31:12;;;;;;;5.27;3.27;;;27.30;90.90;;;;;;4860561;29;20472;-74
2021/07/18 11:33:45;;;;;;;3.17;2.90;;;27.40;88.90;;;;;;4859948;29;21006;-75
2021/07/18 11:36:14;;;;;;;5.33;3.20;;;27.40;86.20;;;;;;4860745;29;20524;-74
2021/07/18 11:38:41;;;;;;;3.60;3.30;;;27.50;92.20;;;;;;4859555;29;20865;-74
2021/07/18 11:41:30;;;;;;;2.53;2.33;;;27.50;89.90;;;;;;4860456;29;20444;-74
2021/07/18 11:44:02;;;;;;;2.87;2.67;;;27.50;90.70;;;;;;4860189;29;20574;-75
2021/07/18 11:46:35;;;;;;;4.13;3.10;;;27.50;83.80;;;;;;4859481;29;20927;-74
2021/07/18 11:49:06;;;;;;;4.90;3.40;;;27.60;88.30;;;;;;4858836;29;20464;-74
2021/07/18 11:51:35;;;;;;;5.27;3.60;;;27.60;84.00;;;;;;4859099;29;21165;-74
2021/07/18 11:54:03;;;;;;;3.90;2.57;;;27.60;76.30;;;;;;4859649;29;20563;-74
2021/07/18 11:56:35;;;;;;;5.23;4.47;;;27.60;85.90;;;;;;4843980;29;20440;-74
2021/07/18 11:59:07;;;;;;;2.77;2.50;;;27.60;81.60;;;;;;4859769;29;20482;-74
2021/07/18 12:01:38;;;;;;;5.87;3.10;;;27.80;76.20;;;;;;4860325;29;20432;-75
2021/07/18 12:04:22;;;;;;;3.17;2.67;;;27.80;80.00;;;;;;4859235;29;20843;-75
2021/07/18 12:06:55;;;;;;;3.13;2.83;;;27.80;80.20;;;;;;4860109;29;20795;-74
2021/07/18 12:09:28;;;;;;;4.07;2.80;;;27.90;80.30;;;;;;4859313;29;20523;-74
2021/07/18 12:11:58;;;;;;;3.47;3.20;;;27.90;75.30;;;;;;4860004;29;20472;-75
2021/07/18 12:14:27;;;;;;;4.63;4.03;;;27.90;76.40;;;;;;4859502;29;20476;-73
2021/07/18 12:16:56;;;;;;;5.43;4.43;;;27.80;76.70;;;;;;4875574;29;20434;-75
2021/07/18 12:19:28;;;;;;;3.50;2.90;;;27.80;80.30;;;;;;4869978;29;20828;-74
2021/07/18 12:21:56;;;;;;;3.43;2.57;;;27.80;82.10;;;;;;4862593;29;20435;-74
2021/07/18 12:24:36;;;;;;;3.50;2.50;;;27.80;85.10;;;;;;4870671;29;20519;-75
2021/07/18 12:27:09;;;;;;;5.43;2.60;;;27.70;83.30;;;;;;4843098;29;20584;-75
2021/07/18 12:29:38;;;;;;;4.03;3.27;;;27.60;84.20;;;;;;4866615;29;20477;-74
2021/07/18 12:32:08;;;;;;;4.00;2.97;;;27.60;81.20;;;;;;4875152;29;20479;-75
2021/07/18 12:34:40;;;;;;;3.27;2.80;;;27.70;80.70;;;;;;4859208;29;20476;-75
2021/07/18 12:37:10;;;;;;;2.93;2.70;;;27.60;79.50;;;;;;4859560;29;20447;-74
2021/07/18 12:39:42;;;;;;;3.13;2.70;;;27.50;77.40;;;;;;4859080;29;20480;-74
2021/07/18 12:42:20;;;;;;;3.53;2.90;;;27.40;79.70;;;;;;4870621;29;20526;-75
2021/07/18 12:44:56;;;;;;;3.40;3.10;;;27.40;78.90;;;;;;4877830;29;20474;-75
2021/07/18 12:47:32;;;;;;;3.17;2.60;;;27.30;83.60;;;;;;4874418;29;20537;-75
2021/07/18 12:50:02;;;;;;;3.03;2.83;;;27.40;86.20;;;;;;4872624;29;20888;-74
2021/07/18 12:52:29;;;;;;;3.33;3.03;;;27.50;85.30;;;;;;4876715;29;21005;-75